Newdale, Idaho
Current Conditions -  °F | °C
As of 12:53 AM on Saturday 25 Oct 2014 (Local Time) from KRXE Reporting Station
Clear Clear  
Wind Chill: 40°   Ceiling: Unl
Heat Index: 40°   Visibility: 10mi
Dew Point: 31°   Wind: 3mph
Humidity: 70%   Direction: 70°ENE
Pressure: 30.12"   Gusts: NA
Location:  43.89°N, 111.6°W
Report Text: KRXE 250653Z AUTO 07003KT 10SM CLR 04/M01 A3012 RMK AO2 SLP185 T00441006 402000044
Loading
Personal Weather Stations






























Interactive Weather Map
Tropical Storm Tracking
New forecast layout! Learn more

10-Day Weather Forecast

Advertisements
Track Severe Weather on mobile